createdAt,value
2018-04-07T00:02:28.468Z,9.60
2018-04-07T00:05:00.283Z,7.57
2018-04-07T00:07:35.723Z,7.87
2018-04-07T00:10:11.392Z,5.33
2018-04-07T00:12:47.054Z,9.67
2018-04-07T00:15:23.060Z,10.50
2018-04-07T00:17:58.334Z,5.30
2018-04-07T00:20:29.142Z,7.87
2018-04-07T00:23:00.066Z,2.90
2018-04-07T00:25:35.561Z,5.77
2018-04-07T00:28:10.778Z,5.10
2018-04-07T00:30:46.164Z,6.67
2018-04-07T00:33:17.220Z,4.57
2018-04-07T00:35:52.885Z,6.13
2018-04-07T00:38:27.841Z,5.50
2018-04-07T00:41:03.306Z,5.40
2018-04-07T00:43:39.550Z,9.10
2018-04-07T00:46:14.935Z,7.53
2018-04-07T00:48:46.822Z,6.57
2018-04-07T00:51:22.273Z,7.43
2018-04-07T00:53:57.071Z,6.73
2018-04-07T00:56:33.776Z,5.60
2018-04-07T00:59:08.633Z,6.03
2018-04-07T01:01:43.726Z,6.77
2018-04-07T01:04:18.804Z,5.23
2018-04-07T01:06:54.014Z,7.70
2018-04-07T01:09:29.065Z,8.60
2018-04-07T01:12:04.450Z,7.90
2018-04-07T01:14:40.288Z,6.97
2018-04-07T01:17:15.811Z,5.20
2018-04-07T01:19:50.787Z,9.67
2018-04-07T01:22:26.990Z,6.40
2018-04-07T01:25:02.244Z,5.67
2018-04-07T01:27:32.684Z,9.87
2018-04-07T01:30:07.788Z,6.33
2018-04-07T01:32:42.874Z,7.97
2018-04-07T01:35:20.540Z,5.93
2018-04-07T01:37:56.064Z,6.27
2018-04-07T01:40:31.383Z,6.60
2018-04-07T01:43:07.764Z,10.70
2018-04-07T01:45:43.060Z,7.63
2018-04-07T01:48:14.063Z,7.10
2018-04-07T01:50:48.652Z,5.63
2018-04-07T01:53:24.618Z,7.90
2018-04-07T01:56:00.041Z,8.03
2018-04-07T01:58:35.097Z,10.17
2018-04-07T02:01:06.156Z,8.30
2018-04-07T02:03:37.399Z,7.83
2018-04-07T02:06:12.640Z,8.10
2018-04-07T02:08:48.224Z,8.23
2018-04-07T02:11:23.196Z,7.83
2018-04-07T02:13:58.644Z,8.00
2018-04-07T02:16:33.883Z,7.37
2018-04-07T02:19:09.403Z,8.10
2018-04-07T02:21:45.200Z,7.47
2018-04-07T02:24:16.254Z,8.87
2018-04-07T02:26:51.333Z,10.57
2018-04-07T02:29:27.726Z,8.43
2018-04-07T02:32:02.856Z,9.13
2018-04-07T02:34:38.664Z,11.03
2018-04-07T02:37:13.981Z,6.87
2018-04-07T02:39:49.102Z,7.70
2018-04-07T02:42:24.156Z,9.80
2018-04-07T02:44:59.555Z,6.57
2018-04-07T02:47:34.638Z,5.60
2018-04-07T02:50:10.045Z,8.60
2018-04-07T02:52:45.730Z,6.27
2018-04-07T02:55:21.210Z,8.40
2018-04-07T02:57:57.160Z,11.00
2018-04-07T03:00:28.267Z,6.80
2018-04-07T03:02:59.388Z,7.70
2018-04-07T03:05:30.456Z,7.13
2018-04-07T03:08:05.573Z,9.53
2018-04-07T03:10:51.097Z,6.80
2018-04-07T03:13:26.140Z,15.23
2018-04-07T03:16:02.453Z,9.63
2018-04-07T03:18:38.205Z,8.13
2018-04-07T03:21:14.351Z,7.80
2018-04-07T03:23:49.107Z,6.70
2018-04-07T03:26:25.626Z,7.53
2018-04-07T03:29:00.654Z,7.23
2018-04-07T03:31:36.694Z,5.87
2018-04-07T03:34:07.047Z,7.83
2018-04-07T03:36:42.301Z,9.47
2018-04-07T03:39:17.242Z,5.27
2018-04-07T03:41:52.978Z,4.97
2018-04-07T03:44:28.250Z,6.00
2018-04-07T03:47:04.629Z,6.93
2018-04-07T03:49:39.643Z,7.80
2018-04-07T03:52:15.159Z,7.67
2018-04-07T03:54:46.085Z,8.33
2018-04-07T03:57:18.323Z,9.90
2018-04-07T03:59:54.205Z,7.33
2018-04-07T04:02:30.160Z,7.37
2018-04-07T04:05:05.886Z,9.73
2018-04-07T04:07:42.614Z,8.80
2018-04-07T04:10:17.609Z,7.90
2018-04-07T04:12:49.669Z,7.87
2018-04-07T04:15:24.829Z,8.63
2018-04-07T04:18:00.025Z,9.33
2018-04-07T04:20:35.467Z,7.77
2018-04-07T04:23:11.097Z,6.67
2018-04-07T04:25:46.304Z,12.57
2018-04-07T04:28:21.923Z,9.40
2018-04-07T04:30:57.201Z,7.50
2018-04-07T04:33:33.045Z,7.77
2018-04-07T04:36:09.447Z,8.53
2018-04-07T04:38:45.119Z,8.33
2018-04-07T04:41:22.435Z,9.33
2018-04-07T04:43:58.484Z,9.13
2018-04-07T04:46:34.044Z,9.27
2018-04-07T04:49:09.399Z,8.47
2018-04-07T04:51:44.263Z,8.07
2018-04-07T04:54:20.066Z,9.13
2018-04-07T04:56:56.004Z,11.63
2018-04-07T04:59:28.042Z,8.53
2018-04-07T05:01:59.170Z,14.60
2018-04-07T05:04:31.469Z,10.10
2018-04-07T05:07:06.641Z,7.20
2018-04-07T05:09:41.639Z,10.33
2018-04-07T05:12:16.519Z,9.60
2018-04-07T05:14:51.499Z,12.60
2018-04-07T05:17:26.510Z,9.53
2018-04-07T05:20:02.312Z,10.53
2018-04-07T05:22:32.700Z,7.23
2018-04-07T05:25:08.346Z,7.90
2018-04-07T05:27:43.372Z,12.00
2018-04-07T05:30:14.400Z,8.50
2018-04-07T05:32:50.629Z,10.30
2018-04-07T05:35:25.899Z,9.87
2018-04-07T05:37:57.053Z,7.90
2018-04-07T05:40:32.505Z,7.40
2018-04-07T05:43:07.170Z,8.83
2018-04-07T05:45:43.311Z,8.17
2018-04-07T05:48:18.252Z,10.40
2018-04-07T05:50:48.701Z,9.87
2018-04-07T05:53:19.149Z,8.27
2018-04-07T05:55:49.555Z,7.10
2018-04-07T05:58:20.533Z,9.50
2018-04-07T06:00:51.659Z,9.47
2018-04-07T06:03:26.916Z,6.57
2018-04-07T06:06:02.031Z,10.40
2018-04-07T06:08:33.044Z,8.53
2018-04-07T06:11:04.580Z,9.90
2018-04-07T06:13:36.377Z,6.83
2018-04-07T06:16:12.934Z,6.63
2018-04-07T06:18:48.464Z,7.13
2018-04-07T06:21:24.848Z,9.07
2018-04-07T06:23:55.900Z,8.43
2018-04-07T06:26:31.698Z,13.20
2018-04-07T06:29:06.858Z,8.53
2018-04-07T06:31:39.169Z,9.23
2018-04-07T06:34:09.561Z,9.00
2018-04-07T06:36:41.611Z,8.67
2018-04-07T06:39:17.491Z,8.87
2018-04-07T06:41:49.181Z,7.40
2018-04-07T06:44:20.642Z,11.97
2018-04-07T06:46:51.711Z,14.37
2018-04-07T06:49:23.527Z,6.70
2018-04-07T06:51:54.714Z,7.40
2018-04-07T06:54:26.541Z,8.10
2018-04-07T06:56:57.807Z,9.23
2018-04-07T06:59:33.766Z,8.23
2018-04-07T07:02:05.797Z,8.50
2018-04-07T07:04:40.209Z,9.33
2018-04-07T07:07:15.878Z,8.03
2018-04-07T07:09:46.908Z,9.00
2018-04-07T07:12:22.038Z,11.20
2018-04-07T07:14:58.011Z,9.33
2018-04-07T07:17:29.090Z,15.53
2018-04-07T07:20:04.206Z,5.63
2018-04-07T07:22:40.329Z,8.10
2018-04-07T07:25:15.436Z,9.17
2018-04-07T07:27:51.900Z,9.03
2018-04-07T07:30:22.295Z,8.40
2018-04-07T07:32:57.394Z,6.60
2018-04-07T07:35:30.221Z,6.30
2018-04-07T07:38:06.100Z,5.53
2018-04-07T07:40:37.064Z,8.80
2018-04-07T07:43:10.072Z,8.53
2018-04-07T07:45:41.090Z,6.40
2018-04-07T07:48:12.219Z,7.17
2018-04-07T07:50:44.186Z,10.40
2018-04-07T07:53:14.696Z,5.63
2018-04-07T07:55:45.923Z,5.60
2018-04-07T07:58:17.869Z,7.97
2018-04-07T08:00:49.079Z,10.10
2018-04-07T08:03:24.384Z,8.50
2018-04-07T08:05:59.782Z,8.10
2018-04-07T08:08:30.972Z,7.23
2018-04-07T08:11:02.132Z,8.63
2018-04-07T08:13:33.335Z,6.67
2018-04-07T08:16:03.754Z,6.30
2018-04-07T08:18:45.476Z,8.57
2018-04-07T08:21:17.086Z,6.87
2018-04-07T08:23:48.834Z,6.43
2018-04-07T08:26:23.808Z,5.77
2018-04-07T08:28:59.892Z,6.40
2018-04-07T08:31:29.824Z,8.70
2018-04-07T08:34:01.593Z,6.37
2018-04-07T08:36:32.758Z,5.20
2018-04-07T08:39:03.514Z,4.63
2018-04-07T08:41:38.662Z,6.20
2018-04-07T08:44:10.522Z,31.57
2018-04-07T08:46:42.348Z,5.90
2018-04-07T08:49:13.399Z,4.60
2018-04-07T08:51:48.886Z,3.50
2018-04-07T08:54:19.338Z,5.20
2018-04-07T08:56:49.768Z,4.73
2018-04-07T08:59:21.266Z,6.67
2018-04-07T09:01:53.080Z,5.40
2018-04-07T09:04:24.233Z,10.17
2018-04-07T09:06:59.291Z,5.90
2018-04-07T09:09:34.556Z,6.53
2018-04-07T09:12:06.870Z,5.40
2018-04-07T09:14:42.780Z,4.20
2018-04-07T09:17:17.776Z,4.93
2018-04-07T09:19:48.775Z,7.23
2018-04-07T09:22:23.126Z,5.93
2018-04-07T09:24:55.382Z,6.13
2018-04-07T09:27:26.604Z,6.47
2018-04-07T09:29:57.841Z,6.53
2018-04-07T09:32:28.934Z,7.07
2018-04-07T09:34:59.404Z,5.40
2018-04-07T09:37:31.317Z,6.17
2018-04-07T09:40:02.394Z,6.90
2018-04-07T09:42:33.620Z,7.10
2018-04-07T09:45:04.478Z,6.93
2018-04-07T09:47:35.702Z,5.30
2018-04-07T09:50:06.763Z,5.20
2018-04-07T09:52:42.234Z,5.73
2018-04-07T09:55:13.037Z,7.27
2018-04-07T09:57:44.079Z,5.77
2018-04-07T10:00:16.580Z,7.53
2018-04-07T10:02:46.766Z,6.73
2018-04-07T10:05:17.238Z,5.80
2018-04-07T10:07:47.900Z,6.60
2018-04-07T10:10:19.111Z,5.53
2018-04-07T10:12:54.012Z,5.60
2018-04-07T10:15:25.130Z,6.60
2018-04-07T10:18:00.265Z,5.87
2018-04-07T10:20:31.336Z,6.63
2018-04-07T10:23:06.895Z,8.03
2018-04-07T10:25:43.107Z,6.33
2018-04-07T10:28:18.287Z,8.13
2018-04-07T10:30:54.420Z,5.83
2018-04-07T10:33:30.194Z,7.83
2018-04-07T10:36:06.085Z,7.43
2018-04-07T10:38:43.652Z,7.57
2018-04-07T10:41:19.358Z,5.30
2018-04-07T10:43:56.170Z,5.80
2018-04-07T10:46:33.255Z,6.47
2018-04-07T10:49:09.003Z,6.63
2018-04-07T10:51:44.457Z,7.43
2018-04-07T10:54:16.384Z,6.63
2018-04-07T10:56:53.414Z,7.07
2018-04-07T10:59:28.433Z,7.43
2018-04-07T11:02:01.621Z,5.53
2018-04-07T11:04:33.472Z,7.53
2018-04-07T11:07:05.826Z,6.37
2018-04-07T11:09:36.235Z,6.93
2018-04-07T11:12:08.671Z,7.20
2018-04-07T11:14:44.025Z,5.17
2018-04-07T11:17:19.787Z,7.87
2018-04-07T11:19:56.311Z,7.93
2018-04-07T11:22:31.803Z,5.60
2018-04-07T11:25:02.867Z,4.57
2018-04-07T11:27:35.080Z,4.30
2018-04-07T11:30:06.695Z,5.90
2018-04-07T11:32:38.418Z,3.85
2018-04-07T11:35:14.142Z,4.70
2018-04-07T11:37:45.135Z,5.78
2018-04-07T11:40:17.622Z,5.75
2018-04-07T11:42:49.473Z,6.75
2018-04-07T11:45:20.467Z,7.00
2018-04-07T11:47:52.120Z,5.93
2018-04-07T11:50:22.858Z,9.13
2018-04-07T11:52:53.340Z,5.67
2018-04-07T11:55:24.753Z,6.00
2018-04-07T11:57:57.059Z,8.00
2018-04-07T12:00:33.562Z,5.80
2018-04-07T12:03:10.548Z,9.88
2018-04-07T12:05:45.958Z,10.20
2018-04-07T12:08:21.116Z,5.60
2018-04-07T12:10:51.614Z,8.33
2018-04-07T12:13:24.755Z,6.78
2018-04-07T12:15:56.663Z,7.60
2018-04-07T12:18:33.258Z,8.88
2018-04-07T12:21:09.033Z,8.93
2018-04-07T12:23:45.470Z,10.80
2018-04-07T12:26:17.157Z,7.25
2018-04-07T12:28:48.802Z,9.52
2018-04-07T12:31:20.430Z,9.48
2018-04-07T12:33:52.027Z,9.63
2018-04-07T12:36:24.051Z,7.95
2018-04-07T12:39:02.154Z,9.98
2018-04-07T12:41:40.065Z,8.20
2018-04-07T12:44:13.611Z,9.48
2018-04-07T12:46:51.018Z,7.43
2018-04-07T12:49:22.840Z,9.30
2018-04-07T12:51:54.474Z,9.68
2018-04-07T12:54:26.346Z,7.82
2018-04-07T12:57:02.017Z,12.82
2018-04-07T12:59:34.230Z,8.82
2018-04-07T13:02:06.710Z,9.77
2018-04-07T13:04:38.884Z,13.88
2018-04-07T13:07:14.922Z,10.45
2018-04-07T13:09:51.522Z,13.35
2018-04-07T13:12:27.330Z,9.32
2018-04-07T13:15:03.138Z,15.85
2018-04-07T13:17:39.009Z,10.25
2018-04-07T13:20:15.674Z,14.63
2018-04-07T13:22:46.664Z,13.02
2018-04-07T13:25:22.300Z,12.13
2018-04-07T13:27:53.888Z,15.02
2018-04-07T13:30:30.065Z,16.90
2018-04-07T13:33:06.914Z,15.40
2018-04-07T13:35:43.106Z,12.68
2018-04-07T13:38:19.111Z,16.10
2018-04-07T13:40:55.676Z,16.92
2018-04-07T13:43:28.214Z,16.27
2018-04-07T13:45:59.978Z,12.48
2018-04-07T13:48:35.411Z,14.18
2018-04-07T13:51:07.220Z,17.37
2018-04-07T13:53:43.816Z,12.40
2018-04-07T13:56:20.232Z,15.45
2018-04-07T13:58:56.011Z,16.33
2018-04-07T14:01:27.864Z,17.80
2018-04-07T14:04:02.938Z,14.65
2018-04-07T14:06:35.650Z,11.97
2018-04-07T14:09:10.846Z,14.80
2018-04-07T14:11:46.127Z,16.27
2018-04-07T14:14:19.518Z,13.90
2018-04-07T14:16:55.894Z,14.63
2018-04-07T14:19:32.181Z,19.12
2018-04-07T14:22:03.391Z,18.62
2018-04-07T14:24:34.398Z,14.20
2018-04-07T14:27:05.510Z,23.55
2018-04-07T14:29:35.945Z,14.57
2018-04-07T14:32:07.160Z,15.80
2018-04-07T14:34:42.498Z,18.10
2018-04-07T14:37:18.628Z,16.55
2018-04-07T14:39:50.593Z,20.45
2018-04-07T14:42:21.615Z,15.67
2018-04-07T14:44:53.790Z,14.87
2018-04-07T14:47:29.271Z,17.75
2018-04-07T14:50:03.020Z,15.35
2018-04-07T14:52:34.797Z,18.98
2018-04-07T14:55:06.512Z,16.58
2018-04-07T14:57:38.798Z,19.77
2018-04-07T15:00:10.546Z,15.02
2018-04-07T15:02:42.168Z,16.48
2018-04-07T15:05:18.412Z,15.50
2018-04-07T15:07:54.874Z,15.68
2018-04-07T15:10:31.347Z,14.80
2018-04-07T15:13:07.832Z,15.93
2018-04-07T15:15:39.584Z,16.45
2018-04-07T15:18:10.646Z,20.60
2018-04-07T15:20:42.410Z,16.17
2018-04-07T15:23:18.578Z,14.73
2018-04-07T15:25:55.161Z,15.52
2018-04-07T15:28:32.672Z,14.60
2018-04-07T15:31:09.220Z,13.73
2018-04-07T15:33:46.353Z,14.25
2018-04-07T15:36:18.910Z,14.98
2018-04-07T15:38:54.767Z,13.65
2018-04-07T15:41:26.585Z,12.50
2018-04-07T15:43:58.448Z,14.63
2018-04-07T15:46:33.290Z,11.93
2018-04-07T15:49:09.364Z,35.30
2018-04-07T15:51:41.144Z,17.08
2018-04-07T15:54:16.700Z,12.60
2018-04-07T15:56:52.070Z,12.25
2018-04-07T15:59:27.858Z,14.40
2018-04-07T16:02:00.368Z,15.35
2018-04-07T16:04:32.115Z,17.30
2018-04-07T16:07:03.240Z,12.80
2018-04-07T16:09:33.470Z,14.27
2018-04-07T16:12:04.198Z,12.37
2018-04-07T16:14:35.279Z,14.00
2018-04-07T16:17:07.208Z,10.40
2018-04-07T16:19:37.665Z,13.37
2018-04-07T16:22:09.020Z,10.47
2018-04-07T16:24:40.994Z,6.53
2018-04-07T16:27:12.243Z,8.53
2018-04-07T16:29:43.545Z,6.37
2018-04-07T16:32:14.680Z,11.10
2018-04-07T16:34:48.294Z,6.97
2018-04-07T16:37:23.547Z,11.13
2018-04-07T16:39:59.298Z,10.83
2018-04-07T16:42:31.488Z,6.83
2018-04-07T16:45:07.590Z,5.30
2018-04-07T16:47:42.853Z,6.07
2018-04-07T16:50:18.222Z,5.60
2018-04-07T16:52:50.377Z,4.77
2018-04-07T16:55:26.132Z,4.47
2018-04-07T16:57:59.516Z,4.73
2018-04-07T17:00:31.389Z,6.27
2018-04-07T17:03:02.592Z,4.60
2018-04-07T17:05:33.746Z,3.87
2018-04-07T17:08:05.153Z,4.07
2018-04-07T17:10:35.602Z,4.37
2018-04-07T17:13:06.054Z,4.17
2018-04-07T17:15:37.276Z,4.20
2018-04-07T17:18:08.441Z,4.73
2018-04-07T17:20:38.668Z,5.83
2018-04-07T17:23:11.578Z,4.97
2018-04-07T17:25:47.254Z,7.10
2018-04-07T17:28:17.667Z,7.07
2018-04-07T17:30:48.822Z,5.40
2018-04-07T17:33:26.126Z,7.93
2018-04-07T17:35:57.999Z,7.20
2018-04-07T17:38:33.093Z,8.07
2018-04-07T17:41:07.659Z,6.47
2018-04-07T17:43:38.997Z,7.87
2018-04-07T17:46:10.006Z,6.97
2018-04-07T17:48:41.818Z,9.23
2018-04-07T17:51:12.904Z,7.10
2018-04-07T17:53:44.519Z,10.07
2018-04-07T17:56:15.703Z,6.40
2018-04-07T17:58:52.787Z,8.67
2018-04-07T18:01:23.607Z,7.73
2018-04-07T18:03:54.049Z,11.97
2018-04-07T18:06:26.324Z,8.90
2018-04-07T18:08:58.779Z,8.67
2018-04-07T18:11:33.919Z,7.53
2018-04-07T18:14:07.258Z,8.27
2018-04-07T18:16:38.489Z,6.27
2018-04-07T18:19:09.261Z,7.37
2018-04-07T18:21:44.536Z,11.37
2018-04-07T18:24:15.863Z,9.23
2018-04-07T18:26:47.036Z,8.60
2018-04-07T18:29:19.200Z,9.10
2018-04-07T18:31:52.536Z,8.77
2018-04-07T18:34:23.803Z,10.27
2018-04-07T18:36:54.917Z,11.63
2018-04-07T18:39:25.878Z,8.60
2018-04-07T18:41:56.966Z,10.03
2018-04-07T18:44:31.897Z,11.33
2018-04-07T18:47:06.608Z,11.67
2018-04-07T18:49:41.459Z,27.73
2018-04-07T18:52:16.905Z,38.43
2018-04-07T18:54:53.138Z,15.47
2018-04-07T18:57:23.617Z,10.43
2018-04-07T18:59:55.861Z,16.93
2018-04-07T19:02:27.905Z,13.30
2018-04-07T19:04:59.086Z,12.07
2018-04-07T19:07:29.904Z,8.77
2018-04-07T19:10:00.852Z,10.60
2018-04-07T19:12:33.440Z,10.53
2018-04-07T19:15:08.636Z,8.83
2018-04-07T19:17:50.242Z,12.90
2018-04-07T19:20:25.715Z,8.67
2018-04-07T19:23:01.198Z,9.20
2018-04-07T19:25:36.104Z,12.13
2018-04-07T19:28:12.120Z,10.23
2018-04-07T19:30:44.176Z,7.90
2018-04-07T19:33:14.641Z,11.20
2018-04-07T19:35:45.662Z,8.83
2018-04-07T19:38:17.465Z,8.90
2018-04-07T19:40:48.958Z,10.57
2018-04-07T19:43:20.712Z,11.10
2018-04-07T19:45:52.594Z,12.00
2018-04-07T19:48:24.681Z,10.93
2018-04-07T19:50:55.654Z,10.10
2018-04-07T19:53:30.866Z,10.30
2018-04-07T19:56:03.989Z,11.20
2018-04-07T19:58:37.444Z,11.60
2018-04-07T20:01:08.616Z,12.07
2018-04-07T20:03:44.264Z,11.30
2018-04-07T20:06:21.968Z,15.57
2018-04-07T20:08:58.706Z,12.03
2018-04-07T20:11:33.698Z,10.30
2018-04-07T20:14:05.602Z,13.00
2018-04-07T20:16:40.802Z,10.80
2018-04-07T20:19:14.596Z,10.10
2018-04-07T20:21:51.302Z,10.30
2018-04-07T20:24:26.390Z,12.87
2018-04-07T20:27:01.286Z,13.83
2018-04-07T20:29:36.582Z,13.30
2018-04-07T20:32:13.352Z,11.80
2018-04-07T20:34:44.661Z,11.50
2018-04-07T20:37:19.796Z,11.60
2018-04-07T20:39:55.472Z,10.70
2018-04-07T20:42:34.520Z,13.83
2018-04-07T20:45:10.715Z,12.83
2018-04-07T20:47:46.514Z,11.77
2018-04-07T20:50:21.847Z,13.83
2018-04-07T20:52:58.196Z,13.07
2018-04-07T20:55:33.484Z,14.07
2018-04-07T20:58:04.692Z,12.87
2018-04-07T21:00:35.820Z,13.97
2018-04-07T21:03:10.702Z,16.93
2018-04-07T21:05:46.901Z,13.27
2018-04-07T21:08:22.058Z,13.77
2018-04-07T21:10:57.940Z,15.00
2018-04-07T21:13:33.824Z,15.00
2018-04-07T21:16:09.422Z,15.70
2018-04-07T21:18:44.172Z,24.90
2018-04-07T21:21:19.362Z,20.30
2018-04-07T21:23:54.289Z,15.67
2018-04-07T21:26:25.532Z,14.57
2018-04-07T21:29:00.170Z,16.90
2018-04-07T21:31:36.368Z,16.60
2018-04-07T21:34:11.572Z,17.10
2018-04-07T21:36:46.744Z,14.50
2018-04-07T21:39:22.296Z,14.80
2018-04-07T21:41:57.927Z,14.87
2018-04-07T21:44:32.990Z,14.27
2018-04-07T21:47:04.968Z,14.97
2018-04-07T21:49:39.866Z,13.37
2018-04-07T21:52:15.288Z,14.03
2018-04-07T21:54:46.340Z,13.17
2018-04-07T21:57:21.580Z,17.17
2018-04-07T21:59:56.626Z,16.97
2018-04-07T22:02:32.241Z,14.37
2018-04-07T22:05:07.938Z,15.80
2018-04-07T22:07:43.702Z,15.50
2018-04-07T22:10:16.654Z,15.00
2018-04-07T22:12:50.212Z,18.77
2018-04-07T22:15:25.218Z,16.17
2018-04-07T22:18:00.982Z,15.57
2018-04-07T22:20:35.776Z,15.70
2018-04-07T22:23:11.038Z,17.03
2018-04-07T22:25:42.718Z,17.73
2018-04-07T22:28:18.038Z,17.97
2018-04-07T22:30:49.728Z,19.10
2018-04-07T22:33:24.884Z,17.13
2018-04-07T22:36:00.025Z,18.20
2018-04-07T22:38:35.099Z,16.13
2018-04-07T22:41:10.600Z,16.57
2018-04-07T22:43:45.996Z,15.20
2018-04-07T22:46:20.682Z,17.00
2018-04-07T22:48:56.084Z,17.07
2018-04-07T22:51:30.686Z,15.37
2018-04-07T22:54:06.518Z,15.17
2018-04-07T22:56:42.114Z,16.77
2018-04-07T22:59:17.114Z,17.17
2018-04-07T23:01:52.824Z,16.87
2018-04-07T23:04:27.895Z,17.63
2018-04-07T23:07:03.256Z,16.30
2018-04-07T23:09:38.446Z,14.37
2018-04-07T23:12:13.334Z,17.40
2018-04-07T23:14:48.688Z,15.27
2018-04-07T23:17:23.678Z,16.17
2018-04-07T23:19:54.873Z,17.70
2018-04-07T23:22:29.728Z,17.63
2018-04-07T23:25:05.519Z,14.00
2018-04-07T23:27:40.449Z,20.90
2018-04-07T23:30:16.278Z,15.10
2018-04-07T23:32:52.320Z,17.93
2018-04-07T23:35:27.524Z,17.13
2018-04-07T23:38:02.220Z,19.07
2018-04-07T23:40:38.416Z,16.60
2018-04-07T23:43:13.079Z,16.03
2018-04-07T23:45:48.206Z,16.97
2018-04-07T23:48:22.789Z,15.47
2018-04-07T23:50:57.906Z,18.23
2018-04-07T23:53:32.758Z,15.37
2018-04-07T23:56:08.033Z,17.27
2018-04-07T23:58:43.147Z,16.37
